createdAt,value
2019-01-26T00:03:08.600Z,99464.55
2019-01-26T00:05:36.682Z,99461.59
2019-01-26T00:08:04.751Z,99457.59
2019-01-26T00:10:32.857Z,99441.41
2019-01-26T00:13:01.021Z,99443.09
2019-01-26T00:15:29.062Z,99441.81
2019-01-26T00:17:57.176Z,99441.31
2019-01-26T00:20:25.169Z,99449.17
2019-01-26T00:22:53.241Z,99443.34
2019-01-26T00:25:21.244Z,99443.40
2019-01-26T00:27:49.281Z,99441.91
2019-01-26T00:30:17.425Z,99443.34
2019-01-26T00:32:45.458Z,99441.01
2019-01-26T00:35:13.459Z,99435.67
2019-01-26T00:37:41.488Z,99432.62
2019-01-26T00:40:09.551Z,99428.27
2019-01-26T00:42:37.604Z,99422.59
2019-01-26T00:45:06.290Z,99424.82
2019-01-26T00:47:34.334Z,99428.27
2019-01-26T00:50:02.374Z,99425.52
2019-01-26T00:52:30.401Z,99419.84
2019-01-26T00:54:58.411Z,99418.12
2019-01-26T00:57:26.485Z,99415.19
2019-01-26T00:59:54.515Z,99410.44
2019-01-26T01:02:22.568Z,99416.58
2019-01-26T01:04:50.631Z,99413.55
2019-01-26T01:07:18.655Z,99413.59
2019-01-26T01:09:46.700Z,99406.59
2019-01-26T01:12:14.713Z,99408.44
2019-01-26T01:14:42.707Z,99411.98
2019-01-26T01:17:10.760Z,99408.95
2019-01-26T01:19:38.779Z,99416.47
2019-01-26T01:22:06.797Z,99418.19
2019-01-26T01:24:34.800Z,99409.30
2019-01-26T01:27:03.683Z,99411.93
2019-01-26T01:29:31.732Z,99402.64
2019-01-26T01:31:59.723Z,99405.34
2019-01-26T01:34:27.704Z,99406.02
2019-01-26T01:36:55.721Z,99402.56
2019-01-26T01:39:23.755Z,99394.29
2019-01-26T01:41:51.775Z,99400.16
2019-01-26T01:44:19.783Z,99392.64
2019-01-26T01:46:47.857Z,99387.05
2019-01-26T01:49:15.903Z,99383.09
2019-01-26T01:51:43.925Z,99391.02
2019-01-26T01:54:11.921Z,99388.88
2019-01-26T01:56:40.019Z,99382.74
2019-01-26T01:59:08.031Z,99382.76
2019-01-26T02:01:36.042Z,99383.80
2019-01-26T02:04:04.051Z,99373.98
2019-01-26T02:06:32.147Z,99368.09
2019-01-26T02:09:00.190Z,99378.19
2019-01-26T02:11:28.257Z,99377.33
2019-01-26T02:13:56.265Z,99368.70
2019-01-26T02:16:24.259Z,99372.52
2019-01-26T02:18:52.243Z,99373.29
2019-01-26T02:21:20.279Z,99377.95
2019-01-26T02:23:48.297Z,99377.98
2019-01-26T02:26:16.361Z,99375.70
2019-01-26T02:28:44.357Z,99368.80
2019-01-26T02:31:12.748Z,99371.64
2019-01-26T02:33:40.909Z,99371.84
2019-01-26T02:36:08.966Z,99368.08
2019-01-26T02:38:37.012Z,99368.66
2019-01-26T02:41:04.999Z,99371.29
2019-01-26T02:43:32.962Z,99369.04
2019-01-26T02:46:00.962Z,99365.31
2019-01-26T02:48:29.029Z,99359.95
2019-01-26T02:50:57.070Z,99370.91
2019-01-26T02:53:25.054Z,99365.95
2019-01-26T02:55:53.058Z,99370.97
2019-01-26T02:58:21.066Z,99362.20
2019-01-26T03:00:49.138Z,99367.17
2019-01-26T03:03:17.136Z,99365.70
2019-01-26T03:05:45.210Z,99373.64
2019-01-26T03:08:13.231Z,99367.48
2019-01-26T03:10:41.240Z,99366.86
2019-01-26T03:13:09.252Z,99360.16
2019-01-26T03:15:37.407Z,99356.64
2019-01-26T03:18:05.396Z,99359.39
2019-01-26T03:20:33.405Z,99354.91
2019-01-26T03:23:01.407Z,99350.48
2019-01-26T03:25:29.463Z,99354.20
2019-01-26T03:27:57.449Z,99353.97
2019-01-26T03:30:25.962Z,99365.97
2019-01-26T03:32:54.066Z,99354.56
2019-01-26T03:35:22.061Z,99355.61
2019-01-26T03:37:50.155Z,99357.48
2019-01-26T03:40:19.689Z,99359.78
2019-01-26T03:42:47.815Z,99354.44
2019-01-26T03:45:16.234Z,99349.62
2019-01-26T03:47:44.311Z,99352.67
2019-01-26T03:50:12.665Z,99352.73
2019-01-26T03:52:40.677Z,99352.15
2019-01-26T03:55:11.909Z,99353.91
2019-01-26T03:57:40.237Z,99345.20
2019-01-26T04:00:29.917Z,99337.20
2019-01-26T04:02:58.012Z,99333.79
2019-01-26T04:05:26.055Z,99338.13
2019-01-26T04:07:54.087Z,99330.36
2019-01-26T04:10:22.169Z,99328.66
2019-01-26T04:12:50.218Z,99324.95
2019-01-26T04:15:18.332Z,99327.72
2019-01-26T04:17:46.350Z,99321.18
2019-01-26T04:20:19.381Z,99320.73
2019-01-26T04:22:47.484Z,99319.48
2019-01-26T04:25:15.506Z,99314.21
2019-01-26T04:27:43.572Z,99306.41
2019-01-26T04:30:14.308Z,99316.45
2019-01-26T04:32:41.532Z,99309.39
2019-01-26T04:35:09.913Z,99311.23
2019-01-26T04:37:38.066Z,99310.36
2019-01-26T04:40:08.062Z,99303.84
2019-01-26T04:42:36.201Z,99309.59
2019-01-26T04:45:04.378Z,99305.64
2019-01-26T04:47:32.629Z,99306.56
2019-01-26T04:50:00.662Z,99318.95
2019-01-26T04:52:28.925Z,99309.31
2019-01-26T04:54:56.927Z,99309.27
2019-01-26T04:57:24.939Z,99310.06
2019-01-26T04:59:53.084Z,99305.23
2019-01-26T05:02:21.188Z,99300.02
2019-01-26T05:04:49.319Z,99297.70
2019-01-26T05:07:18.690Z,99302.98
2019-01-26T05:09:46.701Z,99297.78
2019-01-26T05:12:14.831Z,99298.63
2019-01-26T05:14:42.885Z,99289.86
2019-01-26T05:17:10.977Z,99292.97
2019-01-26T05:19:39.038Z,99289.94
2019-01-26T05:22:07.253Z,99285.52
2019-01-26T05:24:35.338Z,99285.91
2019-01-26T05:27:03.470Z,99288.20
2019-01-26T05:29:31.718Z,99283.27
2019-01-26T05:31:59.852Z,99280.48
2019-01-26T05:34:27.970Z,99282.33
2019-01-26T05:36:56.144Z,99283.20
2019-01-26T05:39:24.330Z,99280.57
2019-01-26T05:41:52.441Z,99270.85
2019-01-26T05:44:20.510Z,99269.63
2019-01-26T05:46:48.808Z,99274.90
2019-01-26T05:49:16.878Z,99262.63
2019-01-26T05:51:44.952Z,99271.78
2019-01-26T05:54:13.257Z,99266.05
2019-01-26T05:56:41.362Z,99265.20
2019-01-26T05:59:09.516Z,99260.78
2019-01-26T06:01:38.095Z,99261.09
2019-01-26T06:04:06.247Z,99256.78
2019-01-26T06:06:34.313Z,99251.75
2019-01-26T06:09:03.206Z,99255.52
2019-01-26T06:11:31.281Z,99248.93
2019-01-26T06:13:59.448Z,99242.78
2019-01-26T06:16:27.517Z,99238.96
2019-01-26T06:18:55.632Z,99228.72
2019-01-26T06:21:23.681Z,99229.02
2019-01-26T06:23:51.738Z,99225.56
2019-01-26T06:26:19.806Z,99215.77
2019-01-26T06:28:47.886Z,99208.52
2019-01-26T06:31:16.359Z,99209.44
2019-01-26T06:33:44.421Z,99206.88
2019-01-26T06:36:12.593Z,99197.16
2019-01-26T06:38:40.759Z,99195.17
2019-01-26T06:41:08.786Z,99184.45
2019-01-26T06:43:36.860Z,99188.38
2019-01-26T06:46:04.999Z,99191.73
2019-01-26T06:48:33.082Z,99198.95
2019-01-26T06:51:01.192Z,99198.58
2019-01-26T06:53:29.214Z,99187.16
2019-01-26T06:55:57.244Z,99192.80
2019-01-26T06:58:25.238Z,99198.53
2019-01-26T07:00:53.427Z,99186.83
2019-01-26T07:03:21.531Z,99190.80
2019-01-26T07:06:03.040Z,99191.53
2019-01-26T07:08:31.118Z,99184.86
2019-01-26T07:10:59.266Z,99184.95
2019-01-26T07:13:27.236Z,99183.27
2019-01-26T07:15:57.869Z,99181.05
2019-01-26T07:18:26.313Z,99181.38
2019-01-26T07:20:54.383Z,99193.99
2019-01-26T07:23:22.418Z,99198.81
2019-01-26T07:25:50.553Z,99195.43
2019-01-26T07:28:18.657Z,99195.30
2019-01-26T07:30:46.819Z,99202.32
2019-01-26T07:33:14.911Z,99201.42
2019-01-26T07:35:43.189Z,99190.12
2019-01-26T07:38:13.733Z,99187.81
2019-01-26T07:40:41.760Z,99194.44
2019-01-26T07:43:10.340Z,99194.47
2019-01-26T07:45:38.449Z,99199.38
2019-01-26T07:48:06.585Z,99192.61
2019-01-26T07:50:34.706Z,99189.96
2019-01-26T07:53:02.778Z,99187.14
2019-01-26T07:55:30.830Z,99189.59
2019-01-26T07:57:59.061Z,99187.47
2019-01-26T08:00:30.686Z,99192.71
2019-01-26T08:02:58.762Z,99191.95
2019-01-26T08:05:27.646Z,99188.80
2019-01-26T08:07:55.726Z,99183.34
2019-01-26T08:10:24.217Z,99177.00
2019-01-26T08:12:52.515Z,99180.31
2019-01-26T08:15:23.115Z,99177.28
2019-01-26T08:17:51.311Z,99185.68
2019-01-26T08:20:20.231Z,99183.92
2019-01-26T08:22:48.462Z,99172.52
2019-01-26T08:25:16.759Z,99182.67
2019-01-26T08:27:44.797Z,99168.53
2019-01-26T08:30:31.385Z,99179.98
2019-01-26T08:32:59.546Z,99174.92
2019-01-26T08:35:27.555Z,99171.03
2019-01-26T08:37:55.598Z,99183.95
2019-01-26T08:40:23.703Z,99183.20
2019-01-26T08:42:51.954Z,99176.70
2019-01-26T08:45:20.111Z,99185.41
2019-01-26T08:47:48.515Z,99184.86
2019-01-26T08:50:18.875Z,99183.31
2019-01-26T08:52:46.999Z,99183.38
2019-01-26T08:55:18.196Z,99187.11
2019-01-26T08:57:45.151Z,99183.63
2019-01-26T09:00:17.310Z,99191.16
2019-01-26T09:03:13.728Z,99182.98
2019-01-26T09:06:01.810Z,99192.34
2019-01-26T09:08:30.044Z,99192.20
2019-01-26T09:10:58.326Z,99192.31
2019-01-26T09:13:26.464Z,99185.07
2019-01-26T09:15:54.627Z,99184.06
2019-01-26T09:18:22.665Z,99202.23
2019-01-26T09:20:50.769Z,99193.56
2019-01-26T09:23:18.970Z,99194.14
2019-01-26T09:25:47.220Z,99185.92
2019-01-26T09:28:15.595Z,99193.05
2019-01-26T09:30:43.803Z,99194.88
2019-01-26T09:33:11.879Z,99195.95
2019-01-26T09:35:40.052Z,99201.01
2019-01-26T09:38:08.219Z,99194.52
2019-01-26T09:40:36.385Z,99200.39
2019-01-26T09:43:04.590Z,99192.43
2019-01-26T09:45:32.697Z,99199.11
2019-01-26T09:48:01.524Z,99201.31
2019-01-26T09:50:29.707Z,99199.06
2019-01-26T09:52:57.835Z,99192.72
2019-01-26T09:55:26.028Z,99207.52
2019-01-26T09:57:54.086Z,99202.97
2019-01-26T10:00:22.236Z,99201.55
2019-01-26T10:02:50.309Z,99204.56
2019-01-26T10:05:18.603Z,99207.52
2019-01-26T10:07:46.679Z,99199.83
2019-01-26T10:10:14.846Z,99194.91
2019-01-26T10:12:43.156Z,99203.44
2019-01-26T10:15:13.674Z,99207.06
2019-01-26T10:17:45.934Z,99200.31
2019-01-26T10:20:15.481Z,99204.14
2019-01-26T10:22:43.639Z,99199.78
2019-01-26T10:25:12.460Z,99200.58
2019-01-26T10:27:40.660Z,99203.05
2019-01-26T10:30:13.439Z,99195.34
2019-01-26T10:32:41.498Z,99199.56
2019-01-26T10:35:10.386Z,99203.63
2019-01-26T10:37:38.507Z,99200.55
2019-01-26T10:40:16.833Z,99201.40
2019-01-26T10:42:45.063Z,99202.34
2019-01-26T10:45:13.390Z,99198.78
2019-01-26T10:47:41.604Z,99202.66
2019-01-26T10:50:09.853Z,99203.83
2019-01-26T10:52:37.917Z,99198.67
2019-01-26T10:55:07.260Z,99204.92
2019-01-26T10:57:35.327Z,99200.94
2019-01-26T11:00:03.730Z,99205.42
2019-01-26T11:02:31.876Z,99193.66
2019-01-26T11:05:00.025Z,99200.19
2019-01-26T11:07:28.099Z,99186.32
2019-01-26T11:09:56.221Z,99192.96
2019-01-26T11:12:24.596Z,99190.27
2019-01-26T11:14:52.778Z,99194.41
2019-01-26T11:17:20.809Z,99190.58
2019-01-26T11:19:48.843Z,99199.33
2019-01-26T11:22:16.954Z,99194.09
2019-01-26T11:24:45.064Z,99182.45
2019-01-26T11:27:13.227Z,99189.33
2019-01-26T11:29:41.656Z,99180.03
2019-01-26T11:32:09.809Z,99189.25
2019-01-26T11:34:38.156Z,99175.86
2019-01-26T11:37:06.568Z,99178.16
2019-01-26T11:39:34.668Z,99165.77
2019-01-26T11:42:02.893Z,99166.63
2019-01-26T11:44:31.055Z,99168.16
2019-01-26T11:47:12.549Z,99168.94
2019-01-26T11:49:46.013Z,98873.47
2019-01-26T11:52:14.089Z,99161.20
2019-01-26T11:57:47.146Z,99164.84
2019-01-26T12:00:43.037Z,99158.59
2019-01-26T12:03:27.934Z,99162.02
2019-01-26T12:06:20.819Z,99157.34
2019-01-26T12:08:49.295Z,99152.84
2019-01-26T12:11:17.450Z,99147.10
2019-01-26T12:13:45.743Z,99147.80
2019-01-26T12:16:13.827Z,99139.56
2019-01-26T12:18:42.001Z,99144.28
2019-01-26T12:21:10.214Z,99149.72
2019-01-26T12:23:38.413Z,99146.28
2019-01-26T12:26:06.910Z,99140.02
2019-01-26T12:28:35.326Z,99148.27
2019-01-26T12:31:03.583Z,99148.43
2019-01-26T12:33:32.023Z,98899.08
2019-01-26T12:36:00.210Z,99150.97
2019-01-26T12:38:28.460Z,99144.28
2019-01-26T12:40:56.722Z,99143.59
2019-01-26T12:43:24.983Z,99150.23
2019-01-26T12:45:53.403Z,99142.56
2019-01-26T12:48:21.879Z,99138.22
2019-01-26T12:50:50.369Z,99139.78
2019-01-26T12:53:18.790Z,99137.48
2019-01-26T12:55:47.405Z,99141.22
2019-01-26T12:58:16.059Z,99139.97
2019-01-26T13:00:44.263Z,99132.80
2019-01-26T13:03:12.830Z,99134.35
2019-01-26T13:05:41.212Z,99136.78
2019-01-26T13:08:10.039Z,99131.19
2019-01-26T13:10:41.859Z,99132.67
2019-01-26T13:13:10.083Z,99120.21
2019-01-26T13:15:38.312Z,99123.17
2019-01-26T13:18:06.937Z,99112.94
2019-01-26T13:20:35.052Z,99111.60
2019-01-26T13:23:03.335Z,99119.06
2019-01-26T13:25:31.679Z,99122.56
2019-01-26T13:27:59.937Z,99112.41
2019-01-26T13:30:28.332Z,99115.20
2019-01-26T13:32:56.606Z,99110.41
2019-01-26T13:35:24.717Z,99109.72
2019-01-26T13:37:52.886Z,99113.17
2019-01-26T13:40:21.886Z,99114.53
2019-01-26T13:42:50.156Z,99119.39
2019-01-26T13:45:18.382Z,99112.73
2019-01-26T13:47:46.615Z,99113.48
2019-01-26T13:50:14.676Z,99107.31
2019-01-26T13:52:42.864Z,99110.78
2019-01-26T13:55:15.938Z,99104.66
2019-01-26T13:57:44.257Z,99105.66
2019-01-26T14:00:31.884Z,99106.91
2019-01-26T14:03:00.077Z,99102.66
2019-01-26T14:05:28.280Z,99099.53
2019-01-26T14:07:56.570Z,99093.07
2019-01-26T14:10:24.810Z,99089.41
2019-01-26T14:12:53.094Z,99084.63
2019-01-26T14:15:21.440Z,99086.14
2019-01-26T14:17:49.965Z,99092.89
2019-01-26T14:20:20.123Z,99097.89
2019-01-26T14:22:48.471Z,99090.28
2019-01-26T14:25:17.109Z,99090.16
2019-01-26T14:27:45.488Z,99091.78
2019-01-26T14:30:20.899Z,99098.36
2019-01-26T14:32:52.546Z,99100.16
2019-01-26T14:35:19.518Z,99090.60
2019-01-26T14:37:47.781Z,99095.98
2019-01-26T14:40:16.340Z,99091.38
2019-01-26T14:42:44.594Z,99089.09
2019-01-26T14:45:13.592Z,99097.55
2019-01-26T14:47:42.131Z,99091.19
2019-01-26T14:50:11.653Z,99095.38
2019-01-26T14:52:39.999Z,99087.65
2019-01-26T14:55:10.830Z,99090.02
2019-01-26T14:57:39.170Z,99087.95
2019-01-26T15:00:11.058Z,99081.94
2019-01-26T15:02:39.438Z,99082.71
2019-01-26T15:05:08.531Z,99076.11
2019-01-26T15:07:36.836Z,99082.41
2019-01-26T15:10:05.776Z,99071.97
2019-01-26T15:12:34.791Z,99076.08
2019-01-26T15:15:03.277Z,99080.05
2019-01-26T15:17:31.469Z,99067.27
2019-01-26T15:20:05.773Z,99075.93
2019-01-26T15:22:30.129Z,99058.81
2019-01-26T15:24:58.420Z,99067.68
2019-01-26T15:27:27.503Z,99069.83
2019-01-26T15:29:55.946Z,99063.19
2019-01-26T15:32:24.347Z,99062.38
2019-01-26T15:34:52.796Z,99046.27
2019-01-26T15:37:21.453Z,99050.97
2019-01-26T15:39:49.677Z,99049.78
2019-01-26T15:42:19.119Z,99044.67
2019-01-26T15:44:47.701Z,99038.64
2019-01-26T15:47:16.256Z,99045.05
2019-01-26T15:49:44.968Z,99045.17
2019-01-26T15:52:13.081Z,99036.73
2019-01-26T15:54:41.170Z,99047.19
2019-01-26T15:57:09.594Z,99045.88
2019-01-26T15:59:37.957Z,99047.67
2019-01-26T16:02:06.610Z,99045.64
2019-01-26T16:04:34.936Z,99044.06
2019-01-26T16:07:04.217Z,99035.03
2019-01-26T16:09:32.966Z,99038.20
2019-01-26T16:12:01.350Z,99028.03
2019-01-26T16:14:32.171Z,99025.61
2019-01-26T16:17:00.476Z,99029.30
2019-01-26T16:19:29.046Z,99026.25
2019-01-26T16:21:57.639Z,99019.61
2019-01-26T16:24:25.938Z,99024.41
2019-01-26T16:26:54.151Z,99019.70
2019-01-26T16:29:22.753Z,99014.39
2019-01-26T16:31:50.861Z,99012.55
2019-01-26T16:34:19.409Z,99007.88
2019-01-26T16:36:47.665Z,99005.01
2019-01-26T16:39:15.894Z,99002.35
2019-01-26T16:41:44.171Z,99005.56
2019-01-26T16:44:12.542Z,99001.66
2019-01-26T16:46:40.683Z,98996.11
2019-01-26T16:49:08.988Z,98998.20
2019-01-26T16:51:37.011Z,98994.56
2019-01-26T16:54:05.368Z,98992.89
2019-01-26T16:56:33.442Z,98983.52
2019-01-26T16:59:01.654Z,98983.34
2019-01-26T17:01:29.928Z,98980.64
2019-01-26T17:03:58.054Z,98981.92
2019-01-26T17:06:26.474Z,98981.55
2019-01-26T17:08:54.542Z,98978.11
2019-01-26T17:11:22.551Z,98977.47
2019-01-26T17:13:50.852Z,98968.86
2019-01-26T17:16:19.178Z,98974.22
2019-01-26T17:18:47.421Z,98972.37
2019-01-26T17:21:15.642Z,98973.53
2019-01-26T17:23:43.881Z,98966.38
2019-01-26T17:26:12.129Z,98964.58
2019-01-26T17:28:40.515Z,98961.58
2019-01-26T17:31:08.800Z,98955.07
2019-01-26T17:33:37.013Z,98501.53
2019-01-26T17:36:05.170Z,98939.61
2019-01-26T17:38:33.330Z,98932.97
2019-01-26T17:41:01.466Z,98928.64
2019-01-26T17:43:30.370Z,98924.20
2019-01-26T17:45:58.583Z,98923.21
2019-01-26T17:48:26.972Z,98918.25
2019-01-26T17:50:55.124Z,98911.61
2019-01-26T17:53:23.228Z,98914.82
2019-01-26T17:55:51.725Z,98908.83
2019-01-26T17:58:20.091Z,98908.05
2019-01-26T18:01:09.197Z,98894.36
2019-01-26T18:03:37.760Z,98895.80
2019-01-26T18:06:06.001Z,98897.72
2019-01-26T18:08:34.472Z,98885.31
2019-01-26T18:11:02.591Z,98891.95
2019-01-26T18:13:30.743Z,98873.76
2019-01-26T18:15:59.353Z,98871.23
2019-01-26T18:18:28.452Z,98864.30
2019-01-26T18:20:56.886Z,98862.45
2019-01-26T18:23:29.685Z,98856.28
2019-01-26T18:25:59.017Z,98853.20
2019-01-26T18:28:27.629Z,98847.26
2019-01-26T18:30:56.529Z,98841.61
2019-01-26T18:33:25.013Z,98832.96
2019-01-26T18:35:53.955Z,98828.89
2019-01-26T18:38:23.331Z,98831.41
2019-01-26T18:40:52.067Z,98832.74
2019-01-26T18:43:20.661Z,98823.81
2019-01-26T18:45:49.331Z,98827.15
2019-01-26T18:48:18.277Z,98827.66
2019-01-26T18:50:48.770Z,98821.41
2019-01-26T18:53:17.344Z,98815.20
2019-01-26T18:55:45.940Z,98819.66
2019-01-26T18:58:14.823Z,98810.32
2019-01-26T19:00:46.536Z,98802.88
2019-01-26T19:03:46.087Z,98800.83
2019-01-26T19:06:14.823Z,98799.84
2019-01-26T19:08:44.362Z,98791.07
2019-01-26T19:11:12.831Z,98788.57
2019-01-26T19:13:41.544Z,98782.77
2019-01-26T19:16:11.068Z,98778.84
2019-01-26T19:18:39.298Z,98773.86
2019-01-26T19:21:07.474Z,98765.40
2019-01-26T19:23:35.868Z,98771.42
2019-01-26T19:26:04.469Z,98755.22
2019-01-26T19:28:32.800Z,98751.15
2019-01-26T19:31:01.620Z,98751.56
2019-01-26T19:33:30.211Z,98751.98
2019-01-26T19:35:58.965Z,98747.38
2019-01-26T19:38:27.449Z,98741.34
2019-01-26T19:40:56.323Z,98741.73
2019-01-26T19:43:25.375Z,98734.71
2019-01-26T19:45:53.705Z,98732.34
2019-01-26T19:48:22.324Z,98734.55
2019-01-26T19:50:51.079Z,98726.98
2019-01-26T19:53:19.575Z,98723.45
2019-01-26T19:55:48.025Z,98724.44
2019-01-26T19:58:16.783Z,98716.45
2019-01-26T20:00:45.640Z,98716.95
2019-01-26T20:03:14.065Z,98709.05
2019-01-26T20:05:48.059Z,98711.40
2019-01-26T20:08:12.802Z,98711.84
2019-01-26T20:10:41.251Z,98702.57
2019-01-26T20:13:29.044Z,98698.73
2019-01-26T20:15:58.829Z,98694.80
2019-01-26T20:18:27.884Z,98688.33
2019-01-26T20:20:56.899Z,98680.37
2019-01-26T20:23:25.776Z,98675.30
2019-01-26T20:25:54.684Z,98672.20
2019-01-26T20:28:24.284Z,98673.58
2019-01-26T20:30:53.970Z,98666.28
2019-01-26T20:33:23.037Z,98665.78
2019-01-26T20:35:51.694Z,98669.50
2019-01-26T20:38:20.154Z,98658.61
2019-01-26T20:40:48.951Z,98655.02
2019-01-26T20:43:17.862Z,98647.48
2019-01-26T20:45:46.466Z,98635.91
2019-01-26T20:48:15.609Z,98638.17
2019-01-26T20:50:44.258Z,98634.53
2019-01-26T20:53:14.580Z,98632.45
2019-01-26T20:55:43.464Z,98626.91
2019-01-26T20:58:13.110Z,98620.13
2019-01-26T21:00:47.286Z,98617.19
2019-01-26T21:03:17.403Z,98611.23
2019-01-26T21:05:46.841Z,98611.02
2019-01-26T21:08:15.857Z,98295.72
2019-01-26T21:10:44.858Z,98602.89
2019-01-26T21:13:16.428Z,98592.65
2019-01-26T21:15:43.713Z,98583.58
2019-01-26T21:18:12.183Z,98584.95
2019-01-26T21:20:40.548Z,98574.22
2019-01-26T21:23:10.160Z,98580.72
2019-01-26T21:25:38.761Z,98573.70
2019-01-26T21:28:07.811Z,98565.67
2019-01-26T21:30:36.394Z,98578.04
2019-01-26T21:33:04.632Z,98566.11
2019-01-26T21:35:33.690Z,98555.25
2019-01-26T21:38:02.442Z,98555.67
2019-01-26T21:40:36.533Z,98552.34
2019-01-26T21:43:04.955Z,98546.91
2019-01-26T21:45:33.355Z,98542.28
2019-01-26T21:48:02.164Z,98542.55
2019-01-26T21:50:31.811Z,98535.66
2019-01-26T21:53:00.209Z,98530.06
2019-01-26T21:55:28.334Z,98535.69
2019-01-26T21:57:56.517Z,98521.91
2019-01-26T22:00:27.198Z,98524.75
2019-01-26T22:02:54.513Z,98521.69
2019-01-26T22:05:22.980Z,98519.94
2019-01-26T22:07:51.298Z,98516.80
2019-01-26T22:10:20.617Z,98513.10
2019-01-26T22:12:48.743Z,98508.74
2019-01-26T22:15:19.088Z,98506.66
2019-01-26T22:17:47.297Z,98503.56
2019-01-26T22:20:20.395Z,98508.84
2019-01-26T22:22:48.905Z,98496.73
2019-01-26T22:25:16.972Z,98493.22
2019-01-26T22:27:45.071Z,98491.61
2019-01-26T22:30:16.128Z,98483.28
2019-01-26T22:32:44.334Z,98473.20
2019-01-26T22:35:12.756Z,98473.20
2019-01-26T22:37:40.890Z,98471.59
2019-01-26T22:40:14.069Z,98471.25
2019-01-26T22:42:42.247Z,98467.83
2019-01-26T22:45:10.980Z,98459.66
2019-01-26T22:47:39.138Z,98454.18
2019-01-26T22:50:09.070Z,98450.81
2019-01-26T22:52:37.305Z,98449.73
2019-01-26T22:55:07.360Z,98439.36
2019-01-26T22:57:36.659Z,98433.97
2019-01-26T23:00:05.686Z,98431.73
2019-01-26T23:02:33.759Z,98428.75
2019-01-26T23:05:53.438Z,98422.70
2019-01-26T23:08:28.314Z,98409.92
2019-01-26T23:11:07.125Z,98412.52
2019-01-26T23:13:57.087Z,98406.47
2019-01-26T23:17:10.503Z,98404.67
2019-01-26T23:20:16.778Z,98392.37
2019-01-26T23:23:10.393Z,98383.95
2019-01-26T23:26:10.180Z,98379.69
2019-01-26T23:29:34.682Z,98375.00
2019-01-26T23:32:02.759Z,98355.08
2019-01-26T23:34:30.896Z,98355.19
2019-01-26T23:36:59.107Z,98358.97
2019-01-26T23:39:27.109Z,98344.25
2019-01-26T23:41:55.674Z,98337.11
2019-01-26T23:44:23.798Z,98334.60
2019-01-26T23:46:51.939Z,98322.02
2019-01-26T23:49:20.178Z,98317.52
2019-01-26T23:51:48.209Z,98309.77
2019-01-26T23:54:16.427Z,98312.47
2019-01-26T23:56:44.602Z,98304.72
2019-01-26T23:59:12.642Z,98299.89
